Time;durP1;ratioP1;P1;durP2;ratioP2;P2;SDS_P1;SDS_P2;PMS_P1;PMS_P2;Temp;Humidity;BMP_temperature;BMP_pressure;BME280_temperature;BME280_humidity;BME280_pressure;Samples;Min_cycle;Max_cycle;Signal;HPM_P1;HPM_P2
2023/03/12 00:00:19;;;;;;;7.35;3.85;;;4.90;99.90;;;;;;4190755;28;20029;-71
2023/03/12 00:02:20;;;;;;;9.55;4.13;;;4.90;99.90;;;;;;4193357;28;20052;-72
2023/03/12 00:04:20;;;;;;;10.05;4.18;;;4.90;99.90;;;;;;4192244;28;20048;-71
2023/03/12 00:06:21;;;;;;;9.65;4.22;;;4.80;99.90;;;;;;4191919;28;20437;-71
2023/03/12 00:08:22;;;;;;;8.73;4.00;;;4.80;99.90;;;;;;4192808;28;20043;-71
2023/03/12 00:10:22;;;;;;;8.27;4.13;;;4.80;99.90;;;;;;4193505;28;20041;-71
2023/03/12 00:12:23;;;;;;;8.75;4.13;;;4.80;99.90;;;;;;4194926;28;20029;-72
2023/03/12 00:14:23;;;;;;;9.55;4.30;;;4.80;99.90;;;;;;4185543;28;20037;-72
2023/03/12 00:16:24;;;;;;;6.57;3.65;;;4.80;99.90;;;;;;4192122;28;20028;-71
2023/03/12 00:18:25;;;;;;;8.80;3.97;;;4.80;99.90;;;;;;4191640;28;20032;-72
2023/03/12 00:20:25;;;;;;;10.23;4.43;;;4.80;99.90;;;;;;4193829;28;20036;-72
2023/03/12 00:22:27;;;;;;;8.38;3.40;;;4.70;99.90;;;;;;4193438;28;20036;-72
2023/03/12 00:24:27;;;;;;;8.18;4.03;;;4.70;99.90;;;;;;4190105;28;20071;-72
2023/03/12 00:26:28;;;;;;;5.70;3.28;;;4.70;99.90;;;;;;4190808;28;20479;-72
2023/03/12 00:28:29;;;;;;;10.13;3.80;;;4.70;99.90;;;;;;4189243;28;20036;-71
2023/03/12 00:30:29;;;;;;;10.23;4.03;;;4.60;99.90;;;;;;4190555;28;20387;-72
2023/03/12 00:32:33;;;;;;;6.93;3.30;;;4.60;99.90;;;;;;4194328;28;20043;-71
2023/03/12 00:34:34;;;;;;;10.27;3.97;;;4.60;99.90;;;;;;4197010;28;20041;-72
2023/03/12 00:36:34;;;;;;;7.57;3.90;;;4.60;99.90;;;;;;4184848;28;20043;-71
2023/03/12 00:38:35;;;;;;;8.60;3.90;;;4.50;99.90;;;;;;4186573;28;20064;-72
2023/03/12 00:40:36;;;;;;;6.80;3.95;;;4.50;99.90;;;;;;4190849;28;20050;-72
2023/03/12 00:42:36;;;;;;;9.18;3.50;;;4.50;99.90;;;;;;4192120;28;20033;-71
2023/03/12 00:44:37;;;;;;;6.03;3.35;;;4.40;99.90;;;;;;4194640;28;20730;-71
2023/03/12 00:46:37;;;;;;;9.43;3.90;;;4.40;99.90;;;;;;4184382;28;20040;-72
2023/03/12 00:48:39;;;;;;;13.30;3.97;;;4.40;99.90;;;;;;4190607;28;20379;-71
2023/03/12 00:50:39;;;;;;;6.57;3.53;;;4.40;99.90;;;;;;4191868;28;20107;-72
2023/03/12 00:52:40;;;;;;;8.27;4.00;;;4.40;99.90;;;;;;4192762;28;20086;-72
2023/03/12 00:54:41;;;;;;;10.48;4.00;;;4.40;99.90;;;;;;4192295;28;20066;-72
2023/03/12 00:56:41;;;;;;;8.55;4.40;;;4.40;99.90;;;;;;4187136;28;20110;-72
2023/03/12 00:58:42;;;;;;;10.20;4.13;;;4.40;99.90;;;;;;4192261;28;20120;-72
2023/03/12 01:00:43;;;;;;;10.35;4.13;;;4.40;99.90;;;;;;4192712;28;20060;-71
2023/03/12 01:02:43;;;;;;;13.43;5.22;;;4.30;99.90;;;;;;4194224;28;20383;-71
2023/03/12 01:04:44;;;;;;;8.00;3.97;;;4.30;99.90;;;;;;4192820;28;20105;-70
2023/03/12 01:06:44;;;;;;;10.73;5.00;;;4.30;99.90;;;;;;4189959;28;20045;-71
2023/03/12 01:08:45;;;;;;;11.18;4.97;;;4.30;99.90;;;;;;4192223;28;20036;-71
2023/03/12 01:10:45;;;;;;;10.45;4.53;;;4.30;99.90;;;;;;4191269;28;20048;-71
2023/03/12 01:12:46;;;;;;;8.60;4.70;;;4.30;99.90;;;;;;4194261;28;20039;-72
2023/03/12 01:14:47;;;;;;;10.50;5.03;;;4.30;99.90;;;;;;4194251;28;20450;-72
2023/03/12 01:16:48;;;;;;;11.32;4.78;;;4.30;99.90;;;;;;4186791;28;20103;-71
2023/03/12 01:18:48;;;;;;;9.38;4.55;;;4.20;99.90;;;;;;4191762;28;20041;-71
2023/03/12 01:20:49;;;;;;;14.27;5.07;;;4.30;99.90;;;;;;4192988;28;20028;-72
2023/03/12 01:22:50;;;;;;;10.07;4.55;;;4.20;99.90;;;;;;4194612;28;20115;-71
2023/03/12 01:24:50;;;;;;;10.60;4.80;;;4.30;99.90;;;;;;4193543;28;20029;-72
2023/03/12 01:26:51;;;;;;;12.55;5.15;;;4.30;99.90;;;;;;4190856;28;20053;-71
2023/03/12 01:28:52;;;;;;;9.70;4.53;;;4.30;99.90;;;;;;4184721;28;20146;-71
2023/03/12 01:30:52;;;;;;;10.48;5.05;;;4.30;99.90;;;;;;4192031;28;20037;-72
2023/03/12 01:32:53;;;;;;;10.65;5.28;;;4.30;99.90;;;;;;4193012;28;20036;-72
2023/03/12 01:34:54;;;;;;;12.10;5.68;;;4.30;99.90;;;;;;4194010;28;20127;-71
2023/03/12 01:36:55;;;;;;;9.38;5.22;;;4.30;99.90;;;;;;4188674;28;20108;-71
2023/03/12 01:38:58;;;;;;;11.82;5.32;;;4.30;99.90;;;;;;4189535;28;20036;-72
2023/03/12 01:40:58;;;;;;;;;;;4.20;99.90;;;;;;4187417;28;20036;-72
2023/03/12 01:43:21;;;;;;;14.30;5.60;;;4.20;99.90;;;;;;4194837;28;20004;-72
2023/03/12 01:45:59;;;;;;;12.07;5.28;;;4.20;99.90;;;;;;4189635;28;20090;-72
2023/03/12 01:48:00;;;;;;;11.35;4.72;;;4.20;99.90;;;;;;4182793;28;20069;-72
2023/03/12 01:50:02;;;;;;;11.13;5.40;;;4.20;99.90;;;;;;4193121;28;20037;-71
2023/03/12 01:52:12;;;;;;;12.95;5.97;;;4.20;99.90;;;;;;4191202;28;20029;-72
2023/03/12 01:54:34;;;;;;;12.10;5.82;;;4.20;99.90;;;;;;4194003;28;20048;-72
2023/03/12 01:56:37;;;;;;;12.48;5.85;;;4.20;99.90;;;;;;4189488;28;20119;-71
2023/03/12 01:58:41;;;;;;;12.10;5.43;;;4.10;99.90;;;;;;4192537;28;20029;-72
2023/03/12 02:00:42;;;;;;;10.70;5.03;;;4.10;99.90;;;;;;4179207;28;20029;-73
2023/03/12 02:02:43;;;;;;;14.30;5.20;;;4.10;99.90;;;;;;4190954;28;20094;-73
2023/03/12 02:04:46;;;;;;;9.98;4.57;;;4.10;99.90;;;;;;4191965;28;20098;-73
2023/03/12 02:07:14;;;;;;;11.02;5.38;;;4.10;99.90;;;;;;4187270;28;20064;-72
2023/03/12 02:09:18;;;;;;;10.88;4.80;;;4.10;99.90;;;;;;4189625;28;20032;-73
2023/03/12 02:11:18;;;;;;;12.02;5.40;;;4.00;99.90;;;;;;4195892;28;20410;-73
2023/03/12 02:13:19;;;;;;;11.45;5.97;;;4.00;99.90;;;;;;4192758;28;20039;-73
2023/03/12 02:15:20;;;;;;;11.82;5.55;;;4.00;99.90;;;;;;4192098;28;20496;-73
2023/03/12 02:17:21;;;;;;;7.90;4.68;;;4.00;99.90;;;;;;4190701;28;20523;-72
2023/03/12 02:19:31;;;;;;;10.82;5.00;;;4.00;99.90;;;;;;4191287;28;20471;-72
2023/03/12 02:21:34;;;;;;;10.18;4.50;;;4.00;99.90;;;;;;4186013;28;20040;-73
2023/03/12 02:23:42;;;;;;;;;;;4.00;99.90;;;;;;4193995;28;20036;-74
2023/03/12 02:25:48;;;;;;;12.85;4.63;;;4.00;99.90;;;;;;4188530;28;19916;-73
2023/03/12 02:27:50;;;;;;;9.65;4.78;;;4.00;99.90;;;;;;4188931;28;20039;-73
2023/03/12 02:29:51;;;;;;;12.03;4.57;;;4.00;99.90;;;;;;4191219;28;20145;-72
2023/03/12 02:31:54;;;;;;;11.82;5.20;;;3.90;99.90;;;;;;4190594;28;20116;-73
2023/03/12 02:33:54;;;;;;;10.45;5.10;;;4.00;99.90;;;;;;4189845;28;20040;-73
2023/03/12 02:35:55;;;;;;;7.15;4.05;;;4.00;99.90;;;;;;4189988;28;20068;-72
2023/03/12 02:37:56;;;;;;;13.80;4.35;;;3.90;99.90;;;;;;4189796;28;20060;-72
2023/03/12 02:40:08;;;;;;;11.65;4.25;;;4.00;99.90;;;;;;4193045;28;20083;-72
2023/03/12 02:42:09;;;;;;;9.75;4.30;;;3.90;99.90;;;;;;4191289;28;20028;-72
2023/03/12 02:44:23;;;;;;;8.75;4.35;;;4.00;99.90;;;;;;4190753;28;20365;-72
2023/03/12 02:46:24;;;;;;;8.43;3.97;;;4.00;99.90;;;;;;4184348;28;20033;-72
2023/03/12 02:48:24;;;;;;;12.30;4.22;;;3.90;99.90;;;;;;4183125;28;20061;-72
2023/03/12 02:50:25;;;;;;;8.15;4.35;;;3.90;99.90;;;;;;4190459;28;20543;-72
2023/03/12 02:52:25;;;;;;;11.32;4.50;;;4.00;99.90;;;;;;4191799;28;20028;-73
2023/03/12 02:54:26;;;;;;;11.18;4.53;;;4.00;99.90;;;;;;4191232;28;20069;-73
2023/03/12 02:56:28;;;;;;;8.35;4.13;;;4.00;99.90;;;;;;4189319;28;20029;-72
2023/03/12 02:58:28;;;;;;;9.45;3.88;;;4.00;99.90;;;;;;4183882;28;20058;-72
2023/03/12 03:00:31;;;;;;;11.32;4.25;;;4.00;99.90;;;;;;4191660;28;20037;-72
2023/03/12 03:02:32;;;;;;;6.97;3.60;;;3.90;99.90;;;;;;4191224;28;20478;-72
2023/03/12 03:04:33;;;;;;;9.57;4.10;;;3.90;99.90;;;;;;4191725;28;20076;-72
2023/03/12 03:06:36;;;;;;;8.93;4.00;;;3.90;99.90;;;;;;4188794;28;20090;-72
2023/03/12 03:08:37;;;;;;;6.00;3.80;;;4.00;99.90;;;;;;4186695;28;20033;-73
2023/03/12 03:10:37;;;;;;;11.25;3.80;;;3.90;99.90;;;;;;4191583;28;20079;-73
2023/03/12 03:12:38;;;;;;;7.45;3.50;;;4.00;99.90;;;;;;4190569;28;20033;-73
2023/03/12 03:14:39;;;;;;;7.85;3.85;;;3.90;99.90;;;;;;4191776;28;20033;-72
2023/03/12 03:16:39;;;;;;;6.65;3.42;;;3.90;99.90;;;;;;4183968;28;20041;-73
2023/03/12 03:18:40;;;;;;;9.60;3.70;;;3.90;99.90;;;;;;4185235;28;20036;-73
2023/03/12 03:20:42;;;;;;;9.18;3.70;;;3.90;99.90;;;;;;4189112;28;20037;-72
2023/03/12 03:22:42;;;;;;;7.57;3.65;;;3.90;99.90;;;;;;4194356;28;20036;-73
2023/03/12 03:24:43;;;;;;;10.55;3.60;;;3.90;99.90;;;;;;4195840;28;20123;-72
2023/03/12 03:26:44;;;;;;;9.75;3.67;;;3.90;99.90;;;;;;4188569;28;20387;-73
2023/03/12 03:28:44;;;;;;;7.25;3.60;;;3.90;99.90;;;;;;4192756;28;20444;-73
2023/03/12 03:30:45;;;;;;;8.15;3.67;;;3.90;99.90;;;;;;4194248;28;20369;-72
2023/03/12 03:32:48;;;;;;;7.78;3.15;;;3.90;99.90;;;;;;4193717;28;20052;-72
2023/03/12 03:34:48;;;;;;;;;;;3.90;99.90;;;;;;4179974;28;20037;-72
2023/03/12 03:36:49;;;;;;;8.15;3.60;;;3.90;99.90;;;;;;4192147;28;20039;-71
2023/03/12 03:38:49;;;;;;;9.27;3.40;;;4.00;99.90;;;;;;4191655;28;20033;-72
2023/03/12 03:40:50;;;;;;;7.53;3.50;;;3.90;99.90;;;;;;4194018;28;20036;-72
2023/03/12 03:42:51;;;;;;;8.40;3.70;;;3.90;99.90;;;;;;4193690;28;20052;-72
2023/03/12 03:44:52;;;;;;;9.35;3.40;;;4.00;99.90;;;;;;4194987;28;20044;-73
2023/03/12 03:46:54;;;;;;;8.65;2.90;;;3.90;99.90;;;;;;4184203;28;20117;-72
2023/03/12 03:48:54;;;;;;;9.73;2.88;;;4.00;99.90;;;;;;4192615;28;20037;-72
2023/03/12 03:51:00;;;;;;;7.40;3.13;;;4.00;99.90;;;;;;4193550;28;20769;-72
2023/03/12 03:53:00;;;;;;;6.90;2.90;;;4.00;99.90;;;;;;4194530;28;20111;-72
2023/03/12 03:55:01;;;;;;;7.72;3.30;;;4.00;99.90;;;;;;4194829;28;20032;-72
2023/03/12 03:57:02;;;;;;;6.60;3.08;;;4.00;99.90;;;;;;4186083;28;20037;-73
2023/03/12 03:59:03;;;;;;;11.63;3.35;;;4.00;99.90;;;;;;4192215;28;20124;-73
2023/03/12 04:01:05;;;;;;;6.85;3.33;;;4.00;99.90;;;;;;4193499;28;20032;-72
2023/03/12 04:03:05;;;;;;;7.13;3.53;;;4.00;99.90;;;;;;4194319;28;20047;-72
2023/03/12 04:05:06;;;;;;;6.47;3.08;;;4.10;99.90;;;;;;4194713;28;20445;-73
2023/03/12 04:07:07;;;;;;;9.30;3.90;;;4.10;99.90;;;;;;4191016;28;20140;-73
2023/03/12 04:09:08;;;;;;;8.63;3.45;;;4.00;99.90;;;;;;4192704;28;20494;-72
2023/03/12 04:11:14;;;;;;;6.32;3.05;;;4.10;99.90;;;;;;4193393;28;20120;-73
2023/03/12 04:13:14;;;;;;;8.13;3.22;;;4.10;99.90;;;;;;4193787;28;20437;-72
2023/03/12 04:15:15;;;;;;;9.73;3.42;;;4.10;99.90;;;;;;4193778;28;20113;-73
2023/03/12 04:17:16;;;;;;;6.00;3.05;;;4.10;99.90;;;;;;4192528;28;20490;-71
2023/03/12 04:19:17;;;;;;;8.60;3.67;;;4.10;99.90;;;;;;4192576;28;20092;-72
2023/03/12 04:21:18;;;;;;;6.50;3.30;;;4.10;99.90;;;;;;4193643;28;20060;-71
2023/03/12 04:23:18;;;;;;;7.57;2.78;;;4.10;99.90;;;;;;4195320;28;20082;-72
2023/03/12 04:25:19;;;;;;;7.32;3.28;;;4.10;99.90;;;;;;4192596;28;20021;-72
2023/03/12 04:27:20;;;;;;;7.55;3.53;;;4.10;99.90;;;;;;4190583;28;20048;-71
2023/03/12 04:29:20;;;;;;;5.47;3.28;;;4.10;99.90;;;;;;4186842;28;20041;-72
2023/03/12 04:31:21;;;;;;;9.65;3.63;;;4.10;99.90;;;;;;4193250;28;20039;-72
2023/03/12 04:33:21;;;;;;;5.60;2.85;;;4.20;99.90;;;;;;4192377;28;20051;-72
2023/03/12 04:35:23;;;;;;;7.15;3.20;;;4.10;99.90;;;;;;4192998;28;20424;-72
2023/03/12 04:37:24;;;;;;;5.45;2.85;;;4.10;99.90;;;;;;4193447;28;20032;-72
2023/03/12 04:39:25;;;;;;;4.63;2.47;;;4.20;99.90;;;;;;4183530;28;20111;-72
2023/03/12 04:41:25;;;;;;;7.45;3.10;;;4.20;99.90;;;;;;4192461;28;20483;-72
2023/03/12 04:43:27;;;;;;;8.40;3.03;;;4.20;99.90;;;;;;4192808;28;20128;-72
2023/03/12 04:45:27;;;;;;;10.45;2.92;;;4.20;99.90;;;;;;4186517;28;20469;-72
2023/03/12 04:47:30;;;;;;;5.75;2.97;;;4.30;99.90;;;;;;4190803;28;20044;-72
2023/03/12 04:49:31;;;;;;;6.25;3.35;;;4.30;99.90;;;;;;4191423;28;20036;-72
2023/03/12 04:51:31;;;;;;;8.52;3.40;;;4.20;99.90;;;;;;4192651;28;20029;-72
2023/03/12 04:53:32;;;;;;;6.93;2.97;;;4.20;99.90;;;;;;4193658;28;20033;-73
2023/03/12 04:55:33;;;;;;;7.25;3.10;;;4.20;99.90;;;;;;4189138;28;20418;-72
2023/03/12 04:57:33;;;;;;;6.13;3.10;;;4.20;99.90;;;;;;4189838;28;20036;-72
2023/03/12 04:59:34;;;;;;;6.47;3.30;;;4.30;99.90;;;;;;4187622;28;20396;-72
2023/03/12 05:01:35;;;;;;;8.75;3.20;;;4.20;99.90;;;;;;4188861;28;20533;-73
2023/03/12 05:03:37;;;;;;;5.28;2.90;;;4.20;99.90;;;;;;4188793;28;20033;-72
2023/03/12 05:05:37;;;;;;;6.35;2.92;;;4.20;99.90;;;;;;4189274;28;20485;-72
2023/03/12 05:07:38;;;;;;;8.35;3.33;;;4.20;99.90;;;;;;4191451;28;20037;-72
2023/03/12 05:09:38;;;;;;;7.00;3.08;;;4.20;99.90;;;;;;4192785;28;20036;-72
2023/03/12 05:11:39;;;;;;;9.43;3.78;;;4.20;99.90;;;;;;4191560;28;20070;-72
2023/03/12 05:13:40;;;;;;;6.05;2.83;;;4.20;99.90;;;;;;4193999;28;20036;-72
2023/03/12 05:15:41;;;;;;;7.82;3.20;;;4.20;99.90;;;;;;4190692;28;20047;-72
2023/03/12 05:17:41;;;;;;;9.30;3.15;;;4.20;99.90;;;;;;4191734;28;20048;-72
2023/03/12 05:19:42;;;;;;;10.45;3.88;;;4.20;99.90;;;;;;4190938;28;20596;-72
2023/03/12 05:21:42;;;;;;;4.55;2.45;;;4.20;99.90;;;;;;4191053;28;20364;-72
2023/03/12 05:23:44;;;;;;;6.38;2.78;;;4.20;99.90;;;;;;4192438;28;20039;-73
2023/03/12 05:25:45;;;;;;;8.50;2.85;;;4.20;99.90;;;;;;4188613;28;20059;-72
2023/03/12 05:27:45;;;;;;;6.22;3.20;;;4.10;99.90;;;;;;4190698;28;20041;-73
2023/03/12 05:29:46;;;;;;;7.53;3.13;;;4.20;99.90;;;;;;4192590;28;20146;-72
2023/03/12 05:31:46;;;;;;;5.78;2.60;;;4.10;99.90;;;;;;4189194;28;20104;-72
2023/03/12 05:33:47;;;;;;;7.90;2.83;;;4.20;99.90;;;;;;4192368;28;20483;-72
2023/03/12 05:35:48;;;;;;;6.82;2.97;;;4.20;99.90;;;;;;4189892;28;20041;-70
2023/03/12 05:37:48;;;;;;;6.47;3.08;;;4.10;99.90;;;;;;4190454;28;20090;-69
2023/03/12 05:39:49;;;;;;;6.68;2.83;;;4.20;99.90;;;;;;4177538;28;20041;-72
2023/03/12 05:41:49;;;;;;;7.35;2.72;;;4.10;99.90;;;;;;4186045;28;21037;-72
2023/03/12 05:43:52;;;;;;;5.57;2.22;;;4.10;99.90;;;;;;4193170;28;20082;-72
2023/03/12 05:45:53;;;;;;;6.95;2.72;;;4.10;99.90;;;;;;4189293;28;20040;-72
2023/03/12 05:47:53;;;;;;;6.45;2.63;;;4.10;99.90;;;;;;4180420;28;20055;-72
2023/03/12 05:49:54;;;;;;;5.25;3.10;;;4.10;99.90;;;;;;4191349;28;20097;-72
2023/03/12 05:51:55;;;;;;;10.98;3.15;;;4.10;99.90;;;;;;4191901;28;20036;-72
2023/03/12 05:53:56;;;;;;;7.28;2.58;;;4.10;99.90;;;;;;4191211;28;20090;-72
2023/03/12 05:56:03;;;;;;;4.75;2.47;;;4.10;99.90;;;;;;4187913;28;20032;-72
2023/03/12 05:58:05;;;;;;;7.53;3.00;;;4.10;99.90;;;;;;4188488;28;20048;-73
2023/03/12 06:00:07;;;;;;;10.88;3.28;;;4.00;99.90;;;;;;4192957;28;20033;-73
2023/03/12 06:02:07;;;;;;;8.57;3.50;;;4.00;99.90;;;;;;4190943;28;20029;-72
2023/03/12 06:04:08;;;;;;;10.65;3.95;;;3.90;99.90;;;;;;4191849;28;20553;-72
2023/03/12 06:06:09;;;;;;;6.88;3.28;;;4.00;99.90;;;;;;4190108;28;20059;-71
2023/03/12 06:08:10;;;;;;;8.60;3.15;;;4.00;99.90;;;;;;4186203;28;20040;-71
2023/03/12 06:10:10;;;;;;;10.07;3.85;;;3.90;99.90;;;;;;4175548;28;20109;-71
2023/03/12 06:12:11;;;;;;;9.43;3.38;;;3.90;99.90;;;;;;4187621;28;20596;-70
2023/03/12 06:14:12;;;;;;;6.00;2.55;;;3.90;99.90;;;;;;4193650;28;20068;-70
2023/03/12 06:16:19;;;;;;;6.53;2.83;;;3.90;99.90;;;;;;4190278;28;20124;-70
2023/03/12 06:18:19;;;;;;;7.65;2.90;;;3.90;99.90;;;;;;4189327;28;20508;-70
2023/03/12 06:20:20;;;;;;;10.20;3.40;;;4.00;99.90;;;;;;4191866;28;20037;-70
2023/03/12 06:22:20;;;;;;;5.13;2.67;;;4.00;99.90;;;;;;4188364;28;20037;-70
2023/03/12 06:24:21;;;;;;;8.13;2.85;;;4.00;99.90;;;;;;4192419;28;20029;-69
2023/03/12 06:26:22;;;;;;;5.72;3.20;;;3.90;99.90;;;;;;4188331;28;20428;-70
2023/03/12 06:28:22;;;;;;;6.30;3.45;;;4.00;99.90;;;;;;4190255;28;20119;-70
2023/03/12 06:30:23;;;;;;;7.75;3.30;;;4.00;99.90;;;;;;4191419;28;20108;-69
2023/03/12 06:32:24;;;;;;;7.30;3.08;;;4.00;99.90;;;;;;4188263;28;20040;-70
2023/03/12 06:34:25;;;;;;;10.95;3.83;;;4.00;99.90;;;;;;4189381;28;20073;-70
2023/03/12 06:36:26;;;;;;;9.25;3.53;;;4.00;99.90;;;;;;4187064;28;20060;-70
2023/03/12 06:38:27;;;;;;;9.15;3.33;;;4.00;99.90;;;;;;4189396;28;20029;-70
2023/03/12 06:40:27;;;;;;;9.70;3.65;;;4.00;99.90;;;;;;4191635;28;20036;-70
2023/03/12 06:42:28;;;;;;;9.02;4.45;;;4.00;99.90;;;;;;4188236;28;20078;-69
2023/03/12 06:44:28;;;;;;;9.88;3.67;;;4.00;99.90;;;;;;4189205;28;20478;-70
2023/03/12 06:46:29;;;;;;;9.43;3.92;;;4.00;99.90;;;;;;4185519;28;20379;-71
2023/03/12 06:48:35;;;;;;;12.52;3.88;;;4.00;99.90;;;;;;4185628;28;20056;-70
2023/03/12 06:50:36;;;;;;;9.82;3.53;;;4.00;99.90;;;;;;4190347;28;20032;-70
2023/03/12 06:52:37;;;;;;;6.13;3.30;;;4.00;99.90;;;;;;4194596;28;20086;-69
2023/03/12 06:54:37;;;;;;;7.35;2.75;;;4.00;99.90;;;;;;4194948;28;20037;-70
2023/03/12 06:56:38;;;;;;;9.35;3.55;;;4.00;99.90;;;;;;4193065;28;20036;-70
2023/03/12 06:58:39;;;;;;;13.02;3.67;;;4.00;99.90;;;;;;4193589;28;20138;-69
2023/03/12 07:00:40;;;;;;;7.18;3.13;;;4.00;99.90;;;;;;4189249;28;20049;-69
2023/03/12 07:02:40;;;;;;;12.27;3.63;;;4.00;99.90;;;;;;4195812;28;20460;-69
2023/03/12 07:04:41;;;;;;;8.15;3.05;;;4.00;99.90;;;;;;4191193;28;21897;-69
2023/03/12 07:06:41;;;;;;;6.57;3.05;;;4.00;99.90;;;;;;4193790;28;20037;-70
2023/03/12 07:08:42;;;;;;;8.32;3.38;;;4.00;99.90;;;;;;4192459;28;20059;-70
2023/03/12 07:10:43;;;;;;;7.28;3.20;;;4.00;99.90;;;;;;4194025;28;20150;-70
2023/03/12 07:12:45;;;;;;;9.02;3.08;;;3.90;99.90;;;;;;4194267;28;21026;-70
2023/03/12 07:14:45;;;;;;;5.72;2.75;;;4.00;99.90;;;;;;4193406;28;20051;-70
2023/03/12 07:16:46;;;;;;;13.85;3.20;;;4.00;99.90;;;;;;4191081;28;20028;-70
2023/03/12 07:18:47;;;;;;;12.02;3.38;;;4.00;99.90;;;;;;4193203;28;20464;-70
2023/03/12 07:20:47;;;;;;;8.38;3.05;;;4.00;99.90;;;;;;4191328;28;20039;-70
2023/03/12 07:22:49;;;;;;;10.77;3.47;;;4.10;99.90;;;;;;4191368;28;20041;-70
2023/03/12 07:24:50;;;;;;;8.30;2.90;;;4.10;99.90;;;;;;4194961;28;20154;-70
2023/03/12 07:26:50;;;;;;;9.57;3.50;;;4.10;99.90;;;;;;4193602;28;20064;-70
2023/03/12 07:28:51;;;;;;;11.10;3.35;;;4.10;99.90;;;;;;4191060;28;20425;-70
2023/03/12 07:30:52;;;;;;;7.28;3.22;;;4.10;99.90;;;;;;4191439;28;20040;-70
2023/03/12 07:32:52;;;;;;;9.43;2.83;;;4.10;99.90;;;;;;4195192;28;20116;-71
2023/03/12 07:34:53;;;;;;;9.65;3.10;;;4.10;99.90;;;;;;4194588;28;20037;-70
2023/03/12 07:36:53;;;;;;;7.63;3.33;;;4.10;99.90;;;;;;4191699;28;20032;-71
2023/03/12 07:38:54;;;;;;;6.80;2.95;;;4.20;99.90;;;;;;4190348;28;20036;-70
2023/03/12 07:40:57;;;;;;;5.78;3.05;;;4.20;99.90;;;;;;4195551;28;20036;-69
2023/03/12 07:42:57;;;;;;;5.47;3.13;;;4.20;99.90;;;;;;4191222;28;20028;-71
2023/03/12 07:44:58;;;;;;;5.75;2.90;;;4.20;99.90;;;;;;4191836;28;20487;-69
2023/03/12 07:46:58;;;;;;;6.72;2.80;;;4.20;99.90;;;;;;4181366;28;20395;-70
2023/03/12 07:48:59;;;;;;;5.47;3.20;;;4.20;99.90;;;;;;4190200;28;20467;-70
2023/03/12 07:51:00;;;;;;;7.78;3.13;;;4.30;99.90;;;;;;4191920;28;20037;-70
2023/03/12 07:53:01;;;;;;;7.35;2.88;;;4.30;99.90;;;;;;4188796;28;20118;-70
2023/03/12 07:55:02;;;;;;;7.63;2.90;;;4.30;99.90;;;;;;4192125;28;20124;-71
2023/03/12 07:57:03;;;;;;;8.95;2.53;;;4.30;99.90;;;;;;4187217;28;20428;-70
2023/03/12 07:59:04;;;;;;;4.90;2.70;;;4.30;99.90;;;;;;4189024;28;20116;-70
2023/03/12 08:01:05;;;;;;;7.05;2.67;;;4.30;99.90;;;;;;4192724;28;20379;-70
2023/03/12 08:03:06;;;;;;;7.32;2.92;;;4.30;99.90;;;;;;4194928;28;20361;-70
2023/03/12 08:05:07;;;;;;;10.18;3.30;;;4.30;99.90;;;;;;4192802;28;20197;-71
2023/03/12 08:07:08;;;;;;;7.93;2.80;;;4.30;99.90;;;;;;4191945;28;20076;-70
2023/03/12 08:09:09;;;;;;;11.77;4.05;;;4.30;99.90;;;;;;4192723;28;20475;-71
2023/03/12 08:11:09;;;;;;;9.18;3.45;;;4.30;99.90;;;;;;4189937;28;20032;-70
2023/03/12 08:13:10;;;;;;;11.40;5.07;;;4.30;99.90;;;;;;4191898;28;20052;-70
2023/03/12 08:15:12;;;;;;;9.73;4.70;;;4.40;99.90;;;;;;4188531;28;20044;-71
2023/03/12 08:17:12;;;;;;;8.80;4.82;;;4.40;99.90;;;;;;4189670;28;20464;-73
2023/03/12 08:19:13;;;;;;;8.18;3.75;;;4.40;99.90;;;;;;4187392;28;20043;-70
2023/03/12 08:21:15;;;;;;;8.68;3.40;;;4.50;99.90;;;;;;4190322;28;20046;-70
2023/03/12 08:23:16;;;;;;;8.52;3.97;;;4.50;99.90;;;;;;4192863;28;20090;-71
2023/03/12 08:25:19;;;;;;;12.07;5.22;;;4.50;99.90;;;;;;4192436;28;20037;-70
2023/03/12 08:27:20;;;;;;;13.68;6.35;;;4.60;99.90;;;;;;4185899;28;20420;-71
2023/03/12 08:29:21;;;;;;;16.52;7.97;;;4.60;99.90;;;;;;4188514;28;20043;-70
2023/03/12 08:31:21;;;;;;;17.17;6.00;;;4.60;99.90;;;;;;4188010;28;20040;-71
2023/03/12 08:33:22;;;;;;;9.70;4.28;;;4.60;99.90;;;;;;4192297;28;20100;-69
2023/03/12 08:35:22;;;;;;;14.25;6.47;;;4.70;99.90;;;;;;4188900;28;20036;-71
2023/03/12 08:37:23;;;;;;;9.23;4.35;;;4.60;99.90;;;;;;4179372;28;20854;-70
2023/03/12 08:39:24;;;;;;;13.57;4.90;;;4.60;99.90;;;;;;4187928;28;20032;-70
2023/03/12 08:41:24;;;;;;;12.00;5.55;;;4.70;99.90;;;;;;4190174;28;20454;-70
2023/03/12 08:43:26;;;;;;;6.18;4.03;;;4.70;99.90;;;;;;4191501;28;20040;-70
2023/03/12 08:45:27;;;;;;;10.05;3.85;;;4.70;99.90;;;;;;4189060;28;20036;-71
2023/03/12 08:47:27;;;;;;;9.02;4.35;;;4.70;99.90;;;;;;4190746;28;20047;-70
2023/03/12 08:49:28;;;;;;;9.43;4.50;;;4.70;99.90;;;;;;4190073;28;20458;-70
2023/03/12 08:51:29;;;;;;;7.43;4.28;;;4.70;99.90;;;;;;4181623;28;20040;-70
2023/03/12 08:53:30;;;;;;;7.93;5.18;;;4.80;99.90;;;;;;4188366;28;20036;-70
2023/03/12 08:55:31;;;;;;;11.02;5.03;;;4.80;99.90;;;;;;4186857;28;20076;-71
2023/03/12 08:57:31;;;;;;;12.20;5.47;;;4.80;99.90;;;;;;4191263;28;20033;-70
2023/03/12 08:59:32;;;;;;;14.88;6.70;;;4.80;99.90;;;;;;4189595;28;20039;-70
2023/03/12 09:01:32;;;;;;;11.52;5.68;;;4.80;99.90;;;;;;4190631;28;20409;-70
2023/03/12 09:03:33;;;;;;;17.38;6.25;;;4.80;99.90;;;;;;4193452;28;20028;-70
2023/03/12 09:05:34;;;;;;;12.60;5.95;;;4.90;99.90;;;;;;4191461;28;20067;-70
2023/03/12 09:07:34;;;;;;;14.07;8.27;;;4.80;99.90;;;;;;4183162;28;20040;-70
2023/03/12 09:09:35;;;;;;;12.68;6.32;;;4.80;99.90;;;;;;4190669;28;20071;-70
2023/03/12 09:11:38;;;;;;;16.17;7.28;;;4.80;99.90;;;;;;4189685;28;20072;-71
2023/03/12 09:13:39;;;;;;;10.32;5.57;;;4.80;99.90;;;;;;4190430;28;20045;-71
2023/03/12 09:15:40;;;;;;;9.95;5.65;;;4.90;99.90;;;;;;4190070;28;20375;-71
2023/03/12 09:17:41;;;;;;;9.82;5.22;;;4.90;99.90;;;;;;4191163;28;20047;-71
2023/03/12 09:19:41;;;;;;;12.48;5.30;;;4.90;99.90;;;;;;4188823;28;20071;-71
2023/03/12 09:21:42;;;;;;;6.63;3.95;;;4.90;99.90;;;;;;4190391;28;20471;-71
2023/03/12 09:23:42;;;;;;;8.32;3.90;;;4.90;99.90;;;;;;4189138;28;20177;-71
2023/03/12 09:25:47;;;;;;;7.30;3.78;;;4.90;99.90;;;;;;4184385;28;20425;-71
2023/03/12 09:27:48;;;;;;;8.20;4.03;;;4.90;99.90;;;;;;4189246;28;20044;-71
2023/03/12 09:29:50;;;;;;;7.35;3.90;;;4.90;99.90;;;;;;4190325;28;20479;-70
2023/03/12 09:31:51;;;;;;;5.70;3.50;;;4.90;99.90;;;;;;4192747;28;20056;-71
2023/03/12 09:33:51;;;;;;;6.28;3.10;;;4.90;99.90;;;;;;4191888;28;20032;-71
2023/03/12 09:35:56;;;;;;;5.10;3.30;;;5.00;99.90;;;;;;4189954;28;20463;-71
2023/03/12 09:37:57;;;;;;;4.88;3.08;;;5.00;99.90;;;;;;4188552;28;20028;-70
2023/03/12 09:39:58;;;;;;;4.20;2.70;;;5.00;99.90;;;;;;4193918;28;20024;-71
2023/03/12 09:41:58;;;;;;;5.78;3.40;;;5.00;99.90;;;;;;4189982;28;20089;-71
2023/03/12 09:44:17;;;;;;;6.95;3.65;;;5.10;99.90;;;;;;4192513;28;20029;-72
2023/03/12 09:46:32;;;;;;;6.43;3.30;;;5.10;99.90;;;;;;4182992;28;20047;-72
2023/03/12 09:48:36;;;;;;;6.85;3.40;;;5.10;99.90;;;;;;4186697;28;20385;-72
2023/03/12 09:50:42;;;;;;;5.50;3.60;;;5.10;99.90;;;;;;4190459;28;20046;-73
2023/03/12 09:53:11;;;;;;;6.80;2.78;;;5.10;99.90;;;;;;4189883;28;20037;-73
2023/03/12 09:55:20;;;;;;;5.57;2.63;;;5.20;99.90;;;;;;4185269;28;20094;-73
2023/03/12 09:57:25;;;;;;;6.57;3.75;;;5.30;99.90;;;;;;4191564;28;20040;-73
2023/03/12 09:59:25;;;;;;;5.40;3.42;;;5.30;99.90;;;;;;4183242;28;20036;-73
2023/03/12 10:01:42;;;;;;;6.80;3.70;;;5.30;99.90;;;;;;4191752;28;20399;-73
2023/03/12 10:04:07;;;;;;;6.47;3.92;;;5.30;99.90;;;;;;4184922;28;20035;-73
2023/03/12 10:06:13;;;;;;;5.03;3.72;;;5.30;99.90;;;;;;4186146;28;20049;-71
2023/03/12 10:08:36;;;;;;;5.97;3.75;;;5.40;99.90;;;;;;4187405;28;20135;-74
2023/03/12 10:10:49;;;;;;;;;;;5.40;99.90;;;;;;4189511;28;20029;-73
2023/03/12 10:13:05;;;;;;;5.88;3.85;;;5.40;99.90;;;;;;4190054;28;20435;-73
2023/03/12 10:15:16;;;;;;;5.85;3.63;;;5.50;99.90;;;;;;4184991;28;20097;-73
2023/03/12 10:17:46;;;;;;;5.22;3.67;;;5.50;99.90;;;;;;4182360;28;20111;-73
2023/03/12 10:20:06;;;;;;;4.65;3.42;;;5.50;99.90;;;;;;4194371;28;20090;-73
2023/03/12 10:22:38;;;;;;;7.72;3.63;;;5.60;99.90;;;;;;4186113;28;20033;-73
2023/03/12 10:25:20;;;;;;;4.88;3.50;;;5.60;99.90;;;;;;4191082;28;20546;-73
2023/03/12 10:27:24;;;;;;;8.27;3.97;;;5.60;99.90;;;;;;4195247;28;20036;-73
2023/03/12 10:29:31;;;;;;;4.93;3.70;;;5.70;99.90;;;;;;4193949;28;20028;-72
2023/03/12 10:31:58;;;;;;;5.28;3.83;;;5.70;99.90;;;;;;4194038;28;20052;-72
2023/03/12 10:34:01;;;;;;;5.95;3.33;;;5.80;99.90;;;;;;4196671;28;20428;-72
2023/03/12 10:36:08;;;;;;;;;;;5.80;99.90;;;;;;4192626;28;20487;-72
2023/03/12 10:38:27;;;;;;;5.15;3.28;;;5.80;99.90;;;;;;4185408;28;19912;-72
2023/03/12 10:40:35;;;;;;;7.55;3.50;;;5.90;99.90;;;;;;4192799;28;20033;-72
2023/03/12 10:42:35;;;;;;;5.80;3.90;;;6.00;99.90;;;;;;4182031;28;20036;-72
2023/03/12 10:44:36;;;;;;;7.03;3.97;;;6.00;99.90;;;;;;4196995;28;20441;-72